createdAt,value
2023-06-30T00:00:18.201Z,32.73
2023-06-30T00:01:18.296Z,32.79
2023-06-30T00:02:18.403Z,32.85
2023-06-30T00:03:18.559Z,32.83
2023-06-30T00:04:18.465Z,32.80
2023-06-30T00:05:18.507Z,32.79
2023-06-30T00:06:18.544Z,32.91
2023-06-30T00:07:18.642Z,32.86
2023-06-30T00:08:18.643Z,32.85
2023-06-30T00:09:18.705Z,32.90
2023-06-30T00:10:18.761Z,32.90
2023-06-30T00:11:18.813Z,32.87
2023-06-30T00:12:18.853Z,32.90
2023-06-30T00:13:18.893Z,32.93
2023-06-30T00:14:18.940Z,32.96
2023-06-30T00:15:19.021Z,32.91
2023-06-30T00:16:19.096Z,32.96
2023-06-30T00:17:19.155Z,32.94
2023-06-30T00:18:19.191Z,32.93
2023-06-30T00:19:19.208Z,32.90
2023-06-30T00:20:19.301Z,32.96
2023-06-30T00:21:19.350Z,33.00
2023-06-30T00:22:19.377Z,32.93
2023-06-30T00:23:19.433Z,33.00
2023-06-30T00:24:19.432Z,33.03
2023-06-30T00:25:19.487Z,33.00
2023-06-30T00:26:19.499Z,32.92
2023-06-30T00:27:19.554Z,33.00
2023-06-30T00:28:19.620Z,33.00
2023-06-30T00:29:19.688Z,32.97
2023-06-30T00:30:19.731Z,32.97
2023-06-30T00:31:19.860Z,33.03
2023-06-30T00:32:19.934Z,33.08
2023-06-30T00:33:19.947Z,33.07
2023-06-30T00:34:19.991Z,33.06
2023-06-30T00:35:20.040Z,33.02
2023-06-30T00:36:20.042Z,33.07
2023-06-30T00:37:20.133Z,33.07
2023-06-30T00:38:20.213Z,33.06
2023-06-30T00:39:20.210Z,33.04
2023-06-30T00:40:20.254Z,33.05
2023-06-30T00:41:20.323Z,33.04
2023-06-30T00:42:20.365Z,33.07
2023-06-30T00:43:20.437Z,33.08
2023-06-30T00:44:20.434Z,33.05
2023-06-30T00:45:20.498Z,33.10
2023-06-30T00:46:20.503Z,33.05
2023-06-30T00:47:20.603Z,33.08
2023-06-30T00:48:20.623Z,33.11
2023-06-30T00:49:20.621Z,33.04
2023-06-30T00:50:20.656Z,33.10
2023-06-30T00:51:20.759Z,33.11
2023-06-30T00:52:20.793Z,33.12
2023-06-30T00:53:20.862Z,33.13
2023-06-30T00:54:20.901Z,33.12
2023-06-30T00:55:20.930Z,33.14
2023-06-30T00:56:20.986Z,33.13
2023-06-30T00:57:21.040Z,33.12
2023-06-30T00:58:21.102Z,33.15
2023-06-30T00:59:21.169Z,33.15
2023-06-30T01:00:21.244Z,33.12
2023-06-30T01:01:21.354Z,33.11
2023-06-30T01:02:21.350Z,33.15
2023-06-30T01:03:21.505Z,33.18
2023-06-30T01:04:21.515Z,33.18
2023-06-30T01:05:21.490Z,33.18
2023-06-30T01:06:21.572Z,33.16
2023-06-30T01:07:21.667Z,33.15
2023-06-30T01:08:21.658Z,33.19
2023-06-30T01:09:21.687Z,33.16
2023-06-30T01:10:21.733Z,33.21
2023-06-30T01:11:21.802Z,33.20
2023-06-30T01:12:21.855Z,33.21
2023-06-30T01:13:21.894Z,33.21
2023-06-30T01:14:21.912Z,33.25
2023-06-30T01:15:21.961Z,33.23
2023-06-30T01:16:22.088Z,33.28
2023-06-30T01:17:22.121Z,33.26
2023-06-30T01:18:22.129Z,33.28
2023-06-30T01:19:22.143Z,33.28
2023-06-30T01:20:22.228Z,33.26
2023-06-30T01:21:22.311Z,33.25
2023-06-30T01:22:23.168Z,33.29
2023-06-30T01:23:22.357Z,33.32
2023-06-30T01:24:22.449Z,33.29
2023-06-30T01:25:22.488Z,33.27
2023-06-30T01:26:22.578Z,33.23
2023-06-30T01:27:22.569Z,33.33
2023-06-30T01:28:22.570Z,33.33
2023-06-30T01:29:22.654Z,33.33
2023-06-30T01:30:22.697Z,33.32
2023-06-30T01:31:22.754Z,33.27
2023-06-30T01:32:22.834Z,33.33
2023-06-30T01:33:22.851Z,33.39
2023-06-30T01:34:22.858Z,33.42
2023-06-30T01:35:22.936Z,33.37
2023-06-30T01:36:22.985Z,33.43
2023-06-30T01:37:23.016Z,33.40
2023-06-30T01:38:23.075Z,33.36
2023-06-30T01:39:23.115Z,33.41
2023-06-30T01:40:23.198Z,33.42
2023-06-30T01:41:23.230Z,33.39
2023-06-30T01:42:23.340Z,33.46
2023-06-30T01:43:23.342Z,33.47
2023-06-30T01:44:23.391Z,33.41
2023-06-30T01:45:23.492Z,33.43
2023-06-30T01:46:23.563Z,33.39
2023-06-30T01:47:23.583Z,33.46
2023-06-30T01:48:23.599Z,33.44
2023-06-30T01:49:23.685Z,33.44
2023-06-30T01:50:23.714Z,33.48
2023-06-30T01:51:23.766Z,33.50
2023-06-30T01:52:23.799Z,33.50
2023-06-30T01:53:23.851Z,33.53
2023-06-30T01:54:23.873Z,33.48
2023-06-30T01:55:23.916Z,33.47
2023-06-30T01:56:23.989Z,33.54
2023-06-30T01:57:24.035Z,33.48
2023-06-30T01:58:24.088Z,33.51
2023-06-30T01:59:24.147Z,33.47
2023-06-30T02:00:24.169Z,33.54
2023-06-30T02:01:24.265Z,33.51
2023-06-30T02:02:24.357Z,33.51
2023-06-30T02:03:24.493Z,33.54
2023-06-30T02:04:24.323Z,33.57
2023-06-30T02:05:24.428Z,33.60
2023-06-30T02:06:24.442Z,33.65
2023-06-30T02:07:24.611Z,33.56
2023-06-30T02:08:24.589Z,33.55
2023-06-30T02:09:30.925Z,33.60
2023-06-30T02:10:25.594Z,33.61
2023-06-30T02:11:24.597Z,33.60
2023-06-30T02:12:24.591Z,33.57
2023-06-30T02:13:24.544Z,33.61
2023-06-30T02:14:24.566Z,33.59
2023-06-30T02:15:24.579Z,33.66
2023-06-30T02:16:24.584Z,33.66
2023-06-30T02:17:24.589Z,33.68
2023-06-30T02:18:24.567Z,33.65
2023-06-30T02:19:24.611Z,33.65
2023-06-30T02:20:24.631Z,33.71
2023-06-30T02:21:24.647Z,33.62
2023-06-30T02:22:24.687Z,33.71
2023-06-30T02:23:24.766Z,33.65
2023-06-30T02:24:24.807Z,33.66
2023-06-30T02:25:24.862Z,33.68
2023-06-30T02:26:24.869Z,33.63
2023-06-30T02:27:24.985Z,33.72
2023-06-30T02:28:25.009Z,33.65
2023-06-30T02:29:25.058Z,33.64
2023-06-30T02:30:25.099Z,33.65
2023-06-30T02:31:25.204Z,33.62
2023-06-30T02:32:25.343Z,33.60
2023-06-30T02:33:25.290Z,33.62
2023-06-30T02:34:25.301Z,33.65
2023-06-30T02:35:25.446Z,33.68
2023-06-30T02:36:25.405Z,33.66
2023-06-30T02:37:25.514Z,33.72
2023-06-30T02:38:25.537Z,33.66
2023-06-30T02:39:25.605Z,33.72
2023-06-30T02:40:25.657Z,33.74
2023-06-30T02:41:25.720Z,33.71
2023-06-30T02:42:25.824Z,33.73
2023-06-30T02:43:25.837Z,33.75
2023-06-30T02:44:25.942Z,33.80
2023-06-30T02:45:25.950Z,33.72
2023-06-30T02:46:26.129Z,33.73
2023-06-30T02:47:26.117Z,33.69
2023-06-30T02:48:26.151Z,33.76
2023-06-30T02:49:26.188Z,33.73
2023-06-30T02:50:26.280Z,33.76
2023-06-30T02:51:26.330Z,33.79
2023-06-30T02:52:26.384Z,33.74
2023-06-30T02:53:26.439Z,33.79
2023-06-30T02:54:26.507Z,33.76
2023-06-30T02:55:26.583Z,33.78
2023-06-30T02:56:26.618Z,33.80
2023-06-30T02:57:26.683Z,33.79
2023-06-30T02:58:26.788Z,33.79
2023-06-30T02:59:26.789Z,33.80
2023-06-30T03:00:26.808Z,33.77
2023-06-30T03:01:26.921Z,33.80
2023-06-30T03:02:27.162Z,33.83
2023-06-30T03:03:27.034Z,33.77
2023-06-30T03:04:27.085Z,33.86
2023-06-30T03:05:27.016Z,33.80
2023-06-30T03:06:27.096Z,33.87
2023-06-30T03:07:27.175Z,33.82
2023-06-30T03:08:27.200Z,33.84
2023-06-30T03:09:27.249Z,33.86
2023-06-30T03:10:27.327Z,33.90
2023-06-30T03:11:27.378Z,33.84
2023-06-30T03:12:27.413Z,33.87
2023-06-30T03:13:27.468Z,33.87
2023-06-30T03:14:27.514Z,33.87
2023-06-30T03:15:27.562Z,33.90
2023-06-30T03:16:27.690Z,33.90
2023-06-30T03:17:27.736Z,33.90
2023-06-30T03:18:27.732Z,33.89
2023-06-30T03:19:27.745Z,33.92
2023-06-30T03:20:27.807Z,33.93
2023-06-30T03:21:27.875Z,33.93
2023-06-30T03:22:27.900Z,33.92
2023-06-30T03:23:27.956Z,33.87
2023-06-30T03:24:27.993Z,33.94
2023-06-30T03:25:28.045Z,33.94
2023-06-30T03:26:28.057Z,33.93
2023-06-30T03:27:28.103Z,33.94
2023-06-30T03:28:28.131Z,33.97
2023-06-30T03:29:28.198Z,33.98
2023-06-30T03:30:28.285Z,33.96
2023-06-30T03:31:28.378Z,33.96
2023-06-30T03:32:28.357Z,34.01
2023-06-30T03:33:28.375Z,33.97
2023-06-30T03:34:28.456Z,34.04
2023-06-30T03:35:28.492Z,33.97
2023-06-30T03:36:28.484Z,34.01
2023-06-30T03:37:28.542Z,34.01
2023-06-30T03:38:28.589Z,33.98
2023-06-30T03:39:28.618Z,34.03
2023-06-30T03:40:28.715Z,34.00
2023-06-30T03:41:28.718Z,34.05
2023-06-30T03:42:28.717Z,34.07
2023-06-30T03:43:28.830Z,34.04
2023-06-30T03:44:28.868Z,34.08
2023-06-30T03:45:28.899Z,34.01
2023-06-30T03:46:29.026Z,34.05
2023-06-30T03:47:29.082Z,34.06
2023-06-30T03:48:29.086Z,34.08
2023-06-30T03:49:29.133Z,34.05
2023-06-30T03:50:29.201Z,34.07
2023-06-30T03:51:29.259Z,34.05
2023-06-30T03:52:29.300Z,34.08
2023-06-30T03:53:29.366Z,34.10
2023-06-30T03:54:29.438Z,34.12
2023-06-30T03:55:29.498Z,34.10
2023-06-30T03:56:29.548Z,34.12
2023-06-30T03:57:29.606Z,34.11
2023-06-30T03:58:29.645Z,34.11
2023-06-30T03:59:29.722Z,34.12
2023-06-30T04:00:29.759Z,34.12
2023-06-30T04:01:29.783Z,34.14
2023-06-30T04:02:29.903Z,34.10
2023-06-30T04:03:30.084Z,34.15
2023-06-30T04:04:30.034Z,34.15
2023-06-30T04:05:30.002Z,34.15
2023-06-30T04:06:30.083Z,34.12
2023-06-30T04:07:30.262Z,34.15
2023-06-30T04:08:30.342Z,34.19
2023-06-30T04:09:30.237Z,34.16
2023-06-30T04:10:30.319Z,34.19
2023-06-30T04:11:30.354Z,34.17
2023-06-30T04:12:30.409Z,34.16
2023-06-30T04:13:30.507Z,34.12
2023-06-30T07:45:56.168Z,53.75
2023-06-30T07:46:56.503Z,52.99
2023-06-30T07:47:56.208Z,51.99
2023-06-30T07:48:56.152Z,51.79
2023-06-30T07:49:56.090Z,52.12
2023-06-30T07:51:08.477Z,52.25
2023-06-30T07:51:57.075Z,52.16
2023-06-30T07:52:56.080Z,52.69
2023-06-30T07:53:56.071Z,52.09
2023-06-30T07:54:56.024Z,51.58
2023-06-30T07:55:56.030Z,51.17
2023-06-30T07:56:56.007Z,49.71
2023-06-30T07:57:56.059Z,49.18
2023-06-30T07:58:56.001Z,48.66
2023-06-30T07:59:58.429Z,48.15
2023-06-30T08:00:56.234Z,48.04
2023-06-30T08:01:56.255Z,47.67
2023-06-30T08:02:56.519Z,47.79
2023-06-30T08:03:56.547Z,47.58
2023-06-30T08:04:56.496Z,47.56
2023-06-30T08:05:56.568Z,47.17
2023-06-30T08:06:56.384Z,47.15
2023-06-30T08:07:56.588Z,46.76
2023-06-30T08:08:56.465Z,46.86
2023-06-30T08:09:56.505Z,47.21
2023-06-30T08:10:56.517Z,47.54
2023-06-30T08:11:56.561Z,47.09
2023-06-30T08:12:56.602Z,47.07
2023-06-30T08:13:56.617Z,46.99
2023-06-30T08:14:56.708Z,47.07
2023-06-30T08:15:56.893Z,47.03
2023-06-30T08:16:58.306Z,47.27
2023-06-30T08:17:57.064Z,47.21
2023-06-30T08:18:56.920Z,47.17
2023-06-30T08:19:56.981Z,47.33
2023-06-30T08:20:56.969Z,47.33
2023-06-30T08:21:57.045Z,47.78
2023-06-30T08:22:57.033Z,46.91
2023-06-30T08:23:57.123Z,46.78
2023-06-30T08:24:57.211Z,46.52
2023-06-30T08:25:57.239Z,46.32
2023-06-30T08:26:57.277Z,45.84
2023-06-30T08:27:57.269Z,45.49
2023-06-30T08:28:57.312Z,45.62
2023-06-30T08:29:57.360Z,45.83
2023-06-30T08:30:57.837Z,45.67
2023-06-30T08:31:57.340Z,45.61
2023-06-30T08:32:57.623Z,45.34
2023-06-30T08:33:57.361Z,45.86
2023-06-30T08:34:57.353Z,45.99
2023-06-30T08:35:57.329Z,45.86
2023-06-30T08:36:57.411Z,45.08
2023-06-30T08:37:57.434Z,45.31
2023-06-30T08:38:57.485Z,44.75
2023-06-30T08:39:57.594Z,45.04
2023-06-30T08:40:57.640Z,45.27
2023-06-30T08:41:57.710Z,44.77
2023-06-30T08:42:57.758Z,44.34
2023-06-30T08:43:57.798Z,44.20
2023-06-30T08:44:57.911Z,43.98
2023-06-30T08:45:57.920Z,43.41
2023-06-30T08:46:58.021Z,43.45
2023-06-30T08:47:58.122Z,43.46
2023-06-30T08:48:58.102Z,43.55
2023-06-30T08:49:58.200Z,43.32
2023-06-30T08:50:58.233Z,43.29
2023-06-30T08:51:58.221Z,43.29
2023-06-30T08:52:58.265Z,43.16
2023-06-30T08:53:58.275Z,43.24
2023-06-30T08:54:58.376Z,43.18
2023-06-30T08:55:58.399Z,43.15
2023-06-30T08:56:58.422Z,44.35
2023-06-30T08:58:00.592Z,43.59
2023-06-30T08:58:59.461Z,44.28
2023-06-30T08:59:58.467Z,44.26
2023-06-30T09:00:58.597Z,44.35
2023-06-30T09:01:58.521Z,44.45
2023-06-30T09:02:58.548Z,44.55
2023-06-30T09:03:58.506Z,44.67
2023-06-30T09:04:58.461Z,44.85
2023-06-30T09:05:58.466Z,44.81
2023-06-30T09:07:00.511Z,44.45
2023-06-30T09:07:58.406Z,44.79
2023-06-30T09:08:58.435Z,44.33
2023-06-30T09:09:58.382Z,44.45
2023-06-30T09:10:58.408Z,44.43
2023-06-30T09:11:58.371Z,44.51
2023-06-30T09:12:58.384Z,44.25
2023-06-30T09:13:58.342Z,44.37
2023-06-30T09:14:58.393Z,44.53
2023-06-30T09:15:58.380Z,44.57
2023-06-30T09:16:58.489Z,44.20
2023-06-30T09:17:58.381Z,44.79
2023-06-30T09:18:58.343Z,44.64
2023-06-30T09:19:58.328Z,44.31
2023-06-30T09:20:58.352Z,44.59
2023-06-30T09:21:58.333Z,44.49
2023-06-30T09:22:58.365Z,44.50
2023-06-30T09:23:58.322Z,44.35
2023-06-30T09:24:58.286Z,44.39
2023-06-30T09:25:58.365Z,44.47
2023-06-30T09:26:58.269Z,44.61
2023-06-30T09:27:58.281Z,45.01
2023-06-30T09:28:58.290Z,44.80
2023-06-30T09:29:58.249Z,45.28
2023-06-30T09:30:58.308Z,44.89
2023-06-30T09:32:21.042Z,45.45
2023-06-30T09:33:20.961Z,46.21
2023-06-30T09:34:21.011Z,45.65
2023-06-30T09:35:20.989Z,45.58
2023-06-30T09:36:20.936Z,45.63
2023-06-30T09:37:20.952Z,45.62
2023-06-30T09:38:20.954Z,45.46
2023-06-30T09:39:21.009Z,46.09
2023-06-30T09:40:20.936Z,45.65
2023-06-30T09:41:20.942Z,45.12
2023-06-30T09:42:20.923Z,45.86
2023-06-30T09:43:20.935Z,45.07
2023-06-30T09:44:20.916Z,45.17
2023-06-30T09:45:20.933Z,45.85
2023-06-30T09:46:20.970Z,45.17
2023-06-30T09:47:20.974Z,45.09
2023-06-30T09:48:20.960Z,44.98
2023-06-30T09:49:20.874Z,45.29
2023-06-30T09:50:20.883Z,45.14
2023-06-30T09:51:20.831Z,44.84
2023-06-30T09:52:20.893Z,45.24
2023-06-30T09:53:20.901Z,46.42
2023-06-30T09:54:28.844Z,46.14
2023-06-30T09:55:21.837Z,45.94
2023-06-30T09:56:21.150Z,47.04
2023-06-30T09:57:20.812Z,46.27
2023-06-30T09:58:20.814Z,45.98
2023-06-30T09:59:20.836Z,45.76
2023-06-30T10:00:34.496Z,45.81
2023-06-30T10:01:22.270Z,45.91
2023-06-30T10:02:20.830Z,45.63
2023-06-30T10:03:20.883Z,45.77
2023-06-30T10:04:20.810Z,45.67
2023-06-30T10:05:20.773Z,45.63
2023-06-30T10:06:21.201Z,45.78
2023-06-30T10:07:20.855Z,45.40
2023-06-30T10:08:20.757Z,45.44
2023-06-30T10:09:20.744Z,45.20
2023-06-30T10:10:20.737Z,45.28
2023-06-30T10:11:20.770Z,44.99
2023-06-30T10:12:20.727Z,44.82
2023-06-30T10:13:20.743Z,44.69
2023-06-30T10:14:20.731Z,44.64
2023-06-30T10:15:20.715Z,44.83
2023-06-30T10:16:20.704Z,44.61
2023-06-30T10:17:20.726Z,44.51
2023-06-30T10:18:20.752Z,44.75
2023-06-30T10:19:20.670Z,44.79
2023-06-30T10:20:23.690Z,44.89
2023-06-30T10:21:21.662Z,45.07
2023-06-30T10:22:20.658Z,45.18
2023-06-30T10:23:20.821Z,44.43
2023-06-30T10:24:20.664Z,44.88
2023-06-30T10:25:20.667Z,44.92
2023-06-30T10:26:20.721Z,44.80
2023-06-30T10:27:20.613Z,44.82
2023-06-30T10:28:20.666Z,45.17
2023-06-30T10:29:20.637Z,44.99
2023-06-30T10:30:20.603Z,44.90
2023-06-30T10:31:20.686Z,45.13
2023-06-30T10:32:20.605Z,45.83
2023-06-30T10:33:20.690Z,45.32
2023-06-30T10:34:20.600Z,45.25
2023-06-30T10:35:20.591Z,45.04
2023-06-30T10:36:20.571Z,45.15
2023-06-30T10:37:20.576Z,45.32
2023-06-30T10:38:20.578Z,45.16
2023-06-30T10:39:20.554Z,45.36
2023-06-30T10:40:20.610Z,45.08
2023-06-30T10:41:20.868Z,45.22
2023-06-30T10:42:20.555Z,45.21
2023-06-30T10:43:20.534Z,45.42
2023-06-30T10:44:20.543Z,44.22
2023-06-30T10:45:20.516Z,44.45
2023-06-30T10:46:20.566Z,44.26
2023-06-30T10:47:20.519Z,44.14
2023-06-30T10:48:20.515Z,43.97
2023-06-30T10:49:20.523Z,44.30
2023-06-30T10:50:20.519Z,44.12
2023-06-30T10:51:20.488Z,43.91
2023-06-30T10:52:20.487Z,43.87
2023-06-30T10:53:20.509Z,43.71
2023-06-30T10:54:20.523Z,43.57
2023-06-30T10:55:20.459Z,43.47
2023-06-30T10:56:20.447Z,43.31
2023-06-30T10:57:20.483Z,43.21
2023-06-30T10:58:20.496Z,43.16
2023-06-30T10:59:20.544Z,43.09
2023-06-30T11:00:20.516Z,42.99
2023-06-30T11:01:20.563Z,42.95
2023-06-30T11:02:20.604Z,42.88
2023-06-30T11:03:20.709Z,42.79
2023-06-30T11:04:20.756Z,42.76
2023-06-30T11:05:20.638Z,42.69
2023-06-30T11:06:20.697Z,42.61
2023-06-30T11:07:20.722Z,42.58
2023-06-30T11:08:20.659Z,42.53
2023-06-30T11:09:20.714Z,42.44
2023-06-30T11:10:20.729Z,42.42
2023-06-30T11:11:20.776Z,42.32
2023-06-30T11:12:20.777Z,42.29
2023-06-30T11:13:20.802Z,42.23
2023-06-30T11:14:20.834Z,42.18
2023-06-30T11:15:20.862Z,42.12
2023-06-30T11:16:20.869Z,42.14
2023-06-30T11:17:20.933Z,42.07
2023-06-30T11:18:20.977Z,42.04
2023-06-30T11:19:20.975Z,42.00
2023-06-30T11:20:20.943Z,41.98
2023-06-30T11:21:20.984Z,41.95
2023-06-30T11:22:20.967Z,41.93
2023-06-30T11:23:21.685Z,41.87
2023-06-30T11:24:21.027Z,41.87
2023-06-30T11:25:21.036Z,41.86
2023-06-30T11:26:21.039Z,41.75
2023-06-30T11:27:21.081Z,41.72
2023-06-30T11:28:21.077Z,41.67
2023-06-30T11:29:21.185Z,41.60
2023-06-30T11:30:21.169Z,41.55
2023-06-30T11:31:21.310Z,41.47
2023-06-30T11:32:21.191Z,41.41
2023-06-30T11:33:21.223Z,41.39
2023-06-30T11:34:21.249Z,41.30
2023-06-30T11:35:21.325Z,41.22
2023-06-30T11:36:21.725Z,41.25
2023-06-30T11:37:21.357Z,41.20
2023-06-30T11:38:21.393Z,41.22
2023-06-30T11:39:21.392Z,41.17
2023-06-30T11:40:21.396Z,41.12
2023-06-30T11:41:21.859Z,41.06
2023-06-30T11:42:21.479Z,41.03
2023-06-30T11:43:21.487Z,41.05
2023-06-30T11:44:21.481Z,40.99
2023-06-30T11:45:21.533Z,40.97
2023-06-30T11:46:21.752Z,40.97
2023-06-30T11:47:21.721Z,40.97
2023-06-30T11:48:21.595Z,40.98
2023-06-30T11:49:21.606Z,40.92
2023-06-30T11:50:21.689Z,40.83
2023-06-30T11:51:21.674Z,40.81
2023-06-30T11:52:21.682Z,40.75
2023-06-30T11:53:21.721Z,40.67
2023-06-30T11:54:21.755Z,40.68
2023-06-30T11:55:21.765Z,40.61
2023-06-30T11:56:22.244Z,40.57
2023-06-30T11:57:21.824Z,40.46
2023-06-30T11:58:21.831Z,40.38
2023-06-30T11:59:21.833Z,40.34
2023-06-30T12:00:21.869Z,40.39
2023-06-30T12:01:22.260Z,40.32
2023-06-30T12:02:22.013Z,40.27
2023-06-30T12:03:21.949Z,40.29
2023-06-30T12:04:22.085Z,40.27
2023-06-30T12:05:22.029Z,40.26
2023-06-30T12:06:22.233Z,40.27
2023-06-30T12:07:22.083Z,40.27
2023-06-30T12:08:22.095Z,40.22
2023-06-30T12:09:22.112Z,40.21
2023-06-30T12:10:22.118Z,40.17
2023-06-30T12:11:22.228Z,40.20
2023-06-30T12:12:22.186Z,40.18
2023-06-30T12:13:22.246Z,40.18
2023-06-30T12:14:22.260Z,40.17
2023-06-30T12:15:22.285Z,40.10
2023-06-30T12:16:22.417Z,40.09
2023-06-30T12:17:22.339Z,40.12
2023-06-30T12:18:22.353Z,39.96
2023-06-30T12:19:22.417Z,39.91
2023-06-30T12:20:22.479Z,39.85
2023-06-30T12:21:22.429Z,39.79
2023-06-30T12:22:22.470Z,39.78
2023-06-30T12:23:22.472Z,39.73
2023-06-30T12:24:22.558Z,39.73
2023-06-30T12:25:22.529Z,39.68
2023-06-30T12:26:22.585Z,39.68
2023-06-30T12:27:22.588Z,39.66
2023-06-30T12:28:22.609Z,39.65
2023-06-30T12:29:22.626Z,39.62
2023-06-30T12:30:22.680Z,39.63
2023-06-30T12:31:22.703Z,39.56
2023-06-30T12:32:22.755Z,39.64
2023-06-30T12:33:22.718Z,39.55
2023-06-30T12:34:22.784Z,39.65
2023-06-30T12:35:22.761Z,39.65
2023-06-30T12:36:23.260Z,39.61
2023-06-30T12:37:22.880Z,39.64
2023-06-30T12:38:22.954Z,39.66
2023-06-30T12:39:22.939Z,39.67
2023-06-30T12:40:22.946Z,39.63
2023-06-30T12:41:23.006Z,39.59
2023-06-30T12:42:23.040Z,39.61
2023-06-30T12:43:23.054Z,39.55
2023-06-30T12:44:23.020Z,39.51
2023-06-30T12:45:23.093Z,39.52
2023-06-30T12:46:23.172Z,39.52
2023-06-30T12:47:23.263Z,39.46
2023-06-30T12:48:23.184Z,39.41
2023-06-30T12:49:23.189Z,39.41
2023-06-30T12:50:23.820Z,39.34
2023-06-30T12:51:23.268Z,39.38
2023-06-30T12:52:23.256Z,39.38
2023-06-30T12:53:23.308Z,39.31
2023-06-30T12:54:23.353Z,39.33
2023-06-30T12:55:23.380Z,39.27
2023-06-30T12:56:23.423Z,39.22
2023-06-30T12:57:23.401Z,39.24
2023-06-30T12:58:23.810Z,39.27
2023-06-30T12:59:23.493Z,39.20
2023-06-30T13:00:23.561Z,39.18
2023-06-30T13:01:30.837Z,39.26
2023-06-30T13:02:23.557Z,39.19
2023-06-30T13:03:23.679Z,39.23
2023-06-30T13:04:23.849Z,39.15
2023-06-30T13:05:23.512Z,39.16
2023-06-30T13:06:23.782Z,39.23
2023-06-30T13:07:23.627Z,39.24
2023-06-30T13:08:23.514Z,39.33
2023-06-30T13:09:23.531Z,39.29
2023-06-30T13:10:23.849Z,39.34
2023-06-30T13:11:23.823Z,39.39
2023-06-30T13:12:23.459Z,39.36
2023-06-30T13:13:23.500Z,39.42
2023-06-30T13:14:23.457Z,39.41
2023-06-30T13:15:23.453Z,39.42
2023-06-30T13:16:23.873Z,39.43
2023-06-30T13:17:23.477Z,39.42
2023-06-30T13:18:23.433Z,39.45
2023-06-30T13:19:23.429Z,39.45
2023-06-30T13:20:23.459Z,39.51
2023-06-30T13:21:23.775Z,39.48
2023-06-30T13:22:23.419Z,39.47
2023-06-30T13:23:32.279Z,39.44
2023-06-30T13:24:26.426Z,39.48
2023-06-30T13:25:23.384Z,39.48
2023-06-30T13:26:23.806Z,39.39
2023-06-30T13:27:23.404Z,39.44
2023-06-30T13:28:23.427Z,39.43
2023-06-30T13:29:23.394Z,39.40
2023-06-30T13:30:23.731Z,39.38
2023-06-30T13:31:23.826Z,39.35
2023-06-30T13:32:23.427Z,39.32
2023-06-30T13:33:23.304Z,39.34
2023-06-30T13:34:23.314Z,39.34
2023-06-30T13:35:23.390Z,39.36
2023-06-30T13:36:24.242Z,39.35
2023-06-30T13:37:23.311Z,39.35
2023-06-30T13:38:23.311Z,39.31
2023-06-30T13:39:23.325Z,39.39
2023-06-30T13:40:23.278Z,39.39
2023-06-30T13:41:23.812Z,39.41
2023-06-30T13:42:23.319Z,39.44
2023-06-30T13:43:23.271Z,39.44
2023-06-30T13:44:23.273Z,39.48
2023-06-30T13:45:23.254Z,39.47
2023-06-30T13:46:23.344Z,39.54
2023-06-30T13:47:23.407Z,39.61
2023-06-30T13:48:23.338Z,39.68
2023-06-30T13:49:23.346Z,39.74
2023-06-30T13:50:23.416Z,39.82
2023-06-30T13:51:23.783Z,39.83
2023-06-30T13:52:23.483Z,39.86
2023-06-30T13:53:24.082Z,39.93
2023-06-30T13:54:23.550Z,40.00
2023-06-30T13:55:23.593Z,40.04
2023-06-30T13:56:23.645Z,40.01
2023-06-30T13:57:23.711Z,40.04
2023-06-30T13:58:23.726Z,40.09
2023-06-30T13:59:23.763Z,40.12
2023-06-30T14:00:23.764Z,40.14
2023-06-30T14:01:23.865Z,40.19
2023-06-30T14:02:23.887Z,40.25
2023-06-30T14:03:23.915Z,40.27
2023-06-30T14:04:23.977Z,40.39
2023-06-30T14:05:24.061Z,40.36
2023-06-30T14:06:24.015Z,40.40
2023-06-30T14:07:24.060Z,40.37
2023-06-30T14:08:24.102Z,40.44
2023-06-30T14:09:24.139Z,40.46
2023-06-30T14:10:24.241Z,40.48
2023-06-30T14:11:24.322Z,40.56
2023-06-30T14:12:24.264Z,40.59
2023-06-30T14:13:24.333Z,40.59
2023-06-30T14:14:24.357Z,40.63
2023-06-30T14:15:24.450Z,40.61
2023-06-30T14:16:24.889Z,40.56
2023-06-30T14:17:24.510Z,40.61
2023-06-30T14:18:24.545Z,40.62
2023-06-30T14:19:24.595Z,40.69
2023-06-30T14:20:24.633Z,40.70
2023-06-30T14:21:24.802Z,40.74
2023-06-30T14:22:24.734Z,40.84
2023-06-30T14:23:24.811Z,40.88
2023-06-30T14:24:24.870Z,40.98
2023-06-30T14:25:24.945Z,41.02
2023-06-30T14:26:24.954Z,41.05
2023-06-30T14:27:25.059Z,41.11
2023-06-30T14:28:25.062Z,41.12
2023-06-30T14:29:25.193Z,41.17
2023-06-30T14:30:25.174Z,41.14
2023-06-30T14:31:25.281Z,41.20
2023-06-30T14:32:25.309Z,41.22
2023-06-30T14:33:25.284Z,41.29
2023-06-30T14:34:25.326Z,41.26
2023-06-30T14:35:25.391Z,41.26
2023-06-30T14:36:25.837Z,41.31
2023-06-30T14:37:25.472Z,41.34
2023-06-30T14:38:25.547Z,41.36
2023-06-30T14:39:25.607Z,41.45
2023-06-30T14:40:25.654Z,41.51
2023-06-30T14:41:25.877Z,41.52
2023-06-30T14:42:32.189Z,41.62
2023-06-30T14:43:26.745Z,41.68
2023-06-30T14:44:25.779Z,41.66
2023-06-30T14:45:25.712Z,41.70
2023-06-30T14:46:25.760Z,41.69
2023-06-30T14:47:25.788Z,41.74
2023-06-30T14:48:26.293Z,41.72
2023-06-30T14:49:25.712Z,41.75
2023-06-30T14:50:25.733Z,41.72
2023-06-30T14:51:25.821Z,41.83
2023-06-30T14:52:25.857Z,41.85
2023-06-30T14:53:25.860Z,41.94
2023-06-30T14:54:25.918Z,41.90
2023-06-30T14:55:25.963Z,42.04
2023-06-30T14:56:26.322Z,42.08
2023-06-30T14:57:26.182Z,42.19
2023-06-30T14:58:26.173Z,42.26
2023-06-30T14:59:26.200Z,42.33
2023-06-30T15:00:26.294Z,42.37
2023-06-30T15:01:26.810Z,42.50
2023-06-30T15:02:26.525Z,42.51
2023-06-30T15:03:26.541Z,42.61
2023-06-30T15:04:26.539Z,42.69
2023-06-30T15:05:26.563Z,42.72
2023-06-30T15:06:26.850Z,42.83
2023-06-30T15:07:26.671Z,42.77
2023-06-30T15:08:26.757Z,42.91
2023-06-30T15:09:26.800Z,43.06
2023-06-30T15:10:26.904Z,43.10
2023-06-30T15:11:27.349Z,43.10
2023-06-30T15:12:26.944Z,43.29
2023-06-30T15:13:27.023Z,43.26
2023-06-30T15:14:27.118Z,43.59
2023-06-30T15:15:27.111Z,43.64
2023-06-30T15:16:27.368Z,43.71
2023-06-30T15:17:27.217Z,43.81
2023-06-30T15:18:27.237Z,43.90
2023-06-30T15:19:27.302Z,44.02
2023-06-30T15:20:27.308Z,44.04
2023-06-30T15:21:27.388Z,44.07
2023-06-30T15:22:27.431Z,44.22
2023-06-30T15:23:27.476Z,44.27
2023-06-30T15:24:27.558Z,44.37
2023-06-30T15:25:27.794Z,44.31
2023-06-30T15:26:27.867Z,44.35
2023-06-30T15:27:27.763Z,44.40
2023-06-30T15:28:27.804Z,44.43
2023-06-30T15:29:27.824Z,44.44
2023-06-30T15:30:27.898Z,44.50
2023-06-30T15:31:27.983Z,44.52
2023-06-30T15:32:28.064Z,44.54
2023-06-30T15:33:28.112Z,44.63
2023-06-30T15:34:28.130Z,44.64
2023-06-30T15:35:28.199Z,44.67
2023-06-30T15:36:28.215Z,44.73
2023-06-30T15:37:28.291Z,44.74
2023-06-30T15:38:28.368Z,44.73
2023-06-30T15:39:28.409Z,44.98
2023-06-30T15:40:28.446Z,45.05
2023-06-30T15:41:28.519Z,45.17
2023-06-30T15:42:28.555Z,45.29
2023-06-30T15:43:28.602Z,45.38
2023-06-30T15:44:28.683Z,45.35
2023-06-30T15:45:28.754Z,45.36
2023-06-30T15:46:28.856Z,45.52
2023-06-30T15:47:28.897Z,45.40
2023-06-30T15:48:28.917Z,45.47
2023-06-30T15:49:28.987Z,45.55
2023-06-30T15:50:29.044Z,45.57
2023-06-30T15:51:29.342Z,45.62
2023-06-30T15:52:29.136Z,45.57
2023-06-30T15:53:29.185Z,45.60
2023-06-30T15:54:29.233Z,45.66
2023-06-30T15:55:29.381Z,45.72
2023-06-30T15:56:29.846Z,45.76
2023-06-30T15:57:29.409Z,45.84
2023-06-30T15:58:29.455Z,45.85
2023-06-30T15:59:29.523Z,45.84
2023-06-30T16:00:29.551Z,45.96
2023-06-30T16:01:29.829Z,46.08
2023-06-30T16:02:29.715Z,46.07
2023-06-30T16:03:29.846Z,46.14
2023-06-30T16:04:29.883Z,46.26
2023-06-30T16:05:30.018Z,46.18
2023-06-30T16:06:30.366Z,45.94
2023-06-30T16:07:29.928Z,45.94
2023-06-30T16:08:29.970Z,46.02
2023-06-30T16:09:30.035Z,46.13
2023-06-30T16:10:30.069Z,46.10
2023-06-30T16:11:30.335Z,46.09
2023-06-30T16:12:30.269Z,46.06
2023-06-30T16:13:30.240Z,45.97
2023-06-30T16:14:30.231Z,45.89
2023-06-30T16:15:30.260Z,46.01
2023-06-30T16:16:30.384Z,46.02
2023-06-30T16:17:30.311Z,46.04
2023-06-30T16:18:30.252Z,46.02
2023-06-30T16:19:30.258Z,46.03
2023-06-30T16:20:30.268Z,46.11
2023-06-30T16:21:30.345Z,46.07
2023-06-30T16:22:30.297Z,46.09
2023-06-30T16:23:30.302Z,46.17
2023-06-30T16:24:30.293Z,46.20